createdAt,value
2022-09-04T00:01:01.193Z,100246.16
2022-09-04T00:03:35.437Z,100244.47
2022-09-04T00:06:06.539Z,100240.75
2022-09-04T00:08:53.939Z,100247.19
2022-09-04T00:11:31.087Z,100243.66
2022-09-04T00:14:01.089Z,100247.44
2022-09-04T00:16:30.078Z,100248.25
2022-09-04T00:19:02.680Z,100241.16
2022-09-04T00:21:33.343Z,100239.50
2022-09-04T00:24:04.213Z,100249.50
2022-09-04T00:26:43.810Z,100242.19
2022-09-04T00:29:16.022Z,100249.50
2022-09-04T00:31:48.363Z,100237.84
2022-09-04T00:34:21.296Z,100244.91
2022-09-04T00:36:52.615Z,100244.09
2022-09-04T00:39:24.231Z,100243.06
2022-09-04T00:42:02.033Z,100251.16
2022-09-04T00:44:40.273Z,100247.63
2022-09-04T00:47:20.562Z,100250.31
2022-09-04T00:49:57.963Z,100253.03
2022-09-04T00:52:42.901Z,100249.50
2022-09-04T00:55:23.055Z,100244.91
2022-09-04T00:58:05.763Z,100254.91
2022-09-04T01:00:33.732Z,100245.13
2022-09-04T01:03:30.865Z,100248.69
2022-09-04T01:06:19.149Z,100244.31
2022-09-04T01:09:03.335Z,100245.38
2022-09-04T01:11:37.480Z,100249.09
2022-09-04T01:14:13.923Z,100251.81
2022-09-04T01:16:45.449Z,100249.09
2022-09-04T01:19:21.113Z,100250.16
2022-09-04T01:21:58.043Z,100247.47
2022-09-04T01:24:47.589Z,100257.47
2022-09-04T01:27:20.286Z,100256.66
2022-09-04T01:29:53.382Z,100252.28
2022-09-04T01:32:27.453Z,100237.09
2022-09-04T01:35:00.731Z,100237.09
2022-09-04T01:37:42.053Z,100245.81
2022-09-04T01:40:35.203Z,100236.88
2022-09-04T01:43:07.341Z,100240.41
2022-09-04T01:45:44.599Z,100237.94
2022-09-04T01:48:13.828Z,100231.69
2022-09-04T01:50:41.832Z,100224.41
2022-09-04T01:53:13.221Z,100217.09
2022-09-04T01:55:45.998Z,100221.69
2022-09-04T01:58:18.466Z,100213.56
2022-09-04T02:00:55.488Z,100213.38
2022-09-04T02:03:27.747Z,100217.91
2022-09-04T02:06:02.777Z,100220.06
2022-09-04T02:08:50.640Z,100220.88
2022-09-04T02:11:19.399Z,100226.28
2022-09-04T02:14:09.398Z,100225.47
2022-09-04T02:16:42.843Z,100226.28
2022-09-04T02:19:22.389Z,100232.75
2022-09-04T02:21:53.056Z,100235.47
2022-09-04T02:24:23.750Z,100236.50
2022-09-04T02:26:53.617Z,100237.56
2022-09-04T02:29:27.395Z,100239.19
2022-09-04T02:31:58.362Z,100237.56
2022-09-04T02:34:30.764Z,100232.16
2022-09-04T02:39:55.518Z,100218.03
2022-09-04T02:42:26.095Z,100230.47
2022-09-04T02:45:02.354Z,100230.47
2022-09-04T02:47:33.254Z,100225.31
2022-09-04T02:50:04.508Z,100225.06
2022-09-04T02:52:51.966Z,100220.72
2022-09-04T02:55:29.103Z,100221.78
2022-09-04T02:58:02.021Z,100223.44
2022-09-04T03:00:40.016Z,100222.63
2022-09-04T03:03:10.336Z,100221.78
2022-09-04T03:05:43.002Z,100219.31
2022-09-04T03:08:15.236Z,100214.72
2022-09-04T03:10:45.112Z,100213.69
2022-09-04T03:13:16.723Z,100205.78
2022-09-04T03:15:46.910Z,100213.91
2022-09-04T03:18:19.073Z,100218.47
2022-09-04T03:20:50.068Z,100224.72
2022-09-04T03:23:20.809Z,100235.53
2022-09-04T03:26:12.523Z,100229.31
2022-09-04T03:28:46.723Z,100232.00
2022-09-04T03:31:25.745Z,100232.81
2022-09-04T03:33:56.179Z,100232.81
2022-09-04T03:36:28.337Z,100249.88
2022-09-04T03:39:02.600Z,100249.88
2022-09-04T03:41:34.407Z,100249.06
2022-09-04T03:44:08.634Z,100247.16
2022-09-04T03:46:46.403Z,100250.94
2022-09-04T03:49:19.012Z,100248.25
2022-09-04T03:51:54.206Z,100253.66
2022-09-04T03:54:36.542Z,100258.00
2022-09-04T03:57:14.623Z,100251.75
2022-09-04T03:59:50.373Z,100254.69
2022-09-04T04:02:23.733Z,100254.69
2022-09-04T04:05:11.868Z,100250.94
2022-09-04T04:07:43.245Z,100259.06
2022-09-04T04:10:18.646Z,100256.34
2022-09-04T04:13:31.483Z,100250.94
2022-09-04T04:16:15.848Z,100256.34
2022-09-04T04:19:32.063Z,100260.09
2022-09-04T04:22:16.772Z,100261.16
2022-09-04T04:25:01.230Z,100269.28
2022-09-04T04:27:37.139Z,100261.38
2022-09-04T04:30:08.853Z,100267.03
2022-09-04T04:33:06.424Z,100263.25
2022-09-04T04:35:39.481Z,100269.72
2022-09-04T04:38:18.372Z,100273.03
2022-09-04T04:41:05.666Z,100269.72
2022-09-04T04:43:38.579Z,100280.53
2022-09-04T04:46:09.519Z,100278.88
2022-09-04T04:52:00.140Z,100283.00
2022-09-04T04:54:41.776Z,100282.44
2022-09-04T04:57:14.416Z,100284.06
2022-09-04T04:59:45.277Z,100275.13
2022-09-04T05:02:20.440Z,100278.44
2022-09-04T05:04:50.846Z,100279.47
2022-09-04T05:07:23.770Z,100279.47
2022-09-04T05:09:57.988Z,100279.47
2022-09-04T05:12:30.773Z,100277.59
2022-09-04T05:15:06.979Z,100280.53
2022-09-04T05:17:37.395Z,100268.06
2022-09-04T05:20:28.245Z,100277.84
2022-09-04T05:23:01.921Z,100273.47
2022-09-04T05:25:36.648Z,100280.53
2022-09-04T05:28:08.673Z,100275.97
2022-09-04T05:30:41.297Z,100283.25
2022-09-04T05:33:13.287Z,100270.53
2022-09-04T05:35:44.782Z,100276.16
2022-09-04T05:38:17.086Z,100276.16
2022-09-04T05:40:56.977Z,100287.00
2022-09-04T05:43:31.016Z,100284.88
2022-09-04T05:46:04.232Z,100294.69
2022-09-04T05:48:34.710Z,100300.66
2022-09-04T05:51:26.981Z,100304.22
2022-09-04T05:54:11.810Z,100306.69
2022-09-04T05:56:50.510Z,100306.69
2022-09-04T05:59:55.633Z,100312.09
2022-09-04T06:02:38.275Z,100311.28
2022-09-04T06:05:19.281Z,100309.19
2022-09-04T06:07:56.539Z,100315.41
2022-09-04T06:10:27.410Z,100317.06
2022-09-04T06:13:06.400Z,100328.47
2022-09-04T06:15:41.823Z,100333.91
2022-09-04T06:18:19.699Z,100328.47
2022-09-04T06:20:55.559Z,100337.66
2022-09-04T06:23:59.199Z,100335.78
2022-09-04T06:26:48.714Z,100339.53
2022-09-04T06:29:32.830Z,100336.84
2022-09-04T06:32:08.813Z,100344.09
2022-09-04T06:34:45.193Z,100331.66
2022-09-04T06:37:17.902Z,100341.41
2022-09-04T06:39:57.505Z,100327.06
2022-09-04T06:42:32.071Z,100328.94
2022-09-04T06:45:18.344Z,100323.53
2022-09-04T06:47:56.869Z,100326.22
2022-09-04T06:50:27.376Z,100323.53
2022-09-04T06:53:04.420Z,100326.22
2022-09-04T06:55:35.046Z,100337.88
2022-09-04T06:58:15.112Z,100337.88
2022-09-04T07:00:46.332Z,100350.38
2022-09-04T07:03:21.923Z,100346.81
2022-09-04T07:05:54.199Z,100355.78
2022-09-04T07:08:33.021Z,100353.28
2022-09-04T07:11:05.145Z,100349.75
2022-09-04T07:13:45.375Z,100353.28
2022-09-04T07:16:31.199Z,100353.28
2022-09-04T07:19:11.751Z,100347.06
2022-09-04T07:21:44.231Z,100351.66
2022-09-04T07:24:18.254Z,100351.66
2022-09-04T07:26:49.177Z,100347.06
2022-09-04T07:29:27.993Z,100347.88
2022-09-04T07:31:59.196Z,100341.84
2022-09-04T07:34:30.862Z,100345.38
2022-09-04T07:37:01.542Z,100343.75
2022-09-04T07:39:31.727Z,100352.69
2022-09-04T07:42:02.529Z,100352.69
2022-09-04T07:44:34.072Z,100364.31
2022-09-04T07:47:08.130Z,100372.22
2022-09-04T07:49:39.122Z,100364.09
2022-09-04T07:52:11.543Z,100374.09
2022-09-04T07:54:51.226Z,100390.09
2022-09-04T07:57:37.467Z,100393.66
2022-09-04T08:00:08.308Z,100396.34
2022-09-04T08:02:53.214Z,100399.66
2022-09-04T08:05:24.254Z,100392.38
2022-09-04T08:08:20.422Z,100383.19
2022-09-04T08:11:00.872Z,100397.56
2022-09-04T08:13:36.713Z,100393.78
2022-09-04T08:16:07.358Z,100399.19
2022-09-04T08:18:42.456Z,100394.84
2022-09-04T08:21:17.381Z,100386.50
2022-09-04T08:24:14.108Z,100390.88
2022-09-04T08:26:45.810Z,100387.34
2022-09-04T08:29:21.554Z,100386.50
2022-09-04T08:31:54.420Z,100388.16
2022-09-04T08:35:04.196Z,100385.25
2022-09-04T08:37:35.979Z,100371.94
2022-09-04T08:40:19.185Z,100372.75
2022-09-04T08:43:09.923Z,100385.00
2022-09-04T08:46:00.801Z,100392.09
2022-09-04T08:49:10.527Z,100384.78
2022-09-04T08:52:23.413Z,100384.56
2022-09-04T08:55:07.349Z,100378.13
2022-09-04T08:58:14.340Z,100378.13
2022-09-04T09:00:49.838Z,100379.78
2022-09-04T09:03:39.339Z,100376.84
2022-09-04T09:06:45.207Z,100373.09
2022-09-04T09:09:48.279Z,100376.03
2022-09-04T09:12:41.271Z,100382.28
2022-09-04T09:15:39.714Z,100381.22
2022-09-04T09:18:18.199Z,100380.16
2022-09-04T09:20:47.896Z,100380.16
2022-09-04T09:23:18.529Z,100386.41
2022-09-04T09:26:06.499Z,100397.81
2022-09-04T09:29:22.523Z,100398.06
2022-09-04T09:32:03.954Z,100413.22
2022-09-04T09:35:09.010Z,100397.22
2022-09-04T09:38:09.300Z,100400.75
2022-09-04T09:41:03.407Z,100405.94
2022-09-04T09:43:54.911Z,100400.53
2022-09-04T09:46:38.554Z,100406.53
2022-09-04T09:49:21.139Z,100403.84
2022-09-04T09:52:11.075Z,100414.44
2022-09-04T09:55:04.804Z,100409.03
2022-09-04T09:57:56.185Z,100407.16
2022-09-04T10:00:25.809Z,100416.91
2022-09-04T10:03:24.586Z,100409.66
2022-09-04T10:06:28.279Z,100415.88
2022-09-04T10:09:22.158Z,100428.81
2022-09-04T10:12:03.124Z,100423.19
2022-09-04T10:15:07.359Z,100416.69
2022-09-04T10:18:18.581Z,100414.00
2022-09-04T10:21:12.457Z,100402.09
2022-09-04T10:24:01.247Z,100409.19
2022-09-04T10:26:39.458Z,100403.78
2022-09-04T10:29:37.763Z,100404.59
2022-09-04T10:32:41.817Z,100404.59
2022-09-04T10:35:22.101Z,100406.25
2022-09-04T10:38:19.426Z,100408.94
2022-09-04T10:41:20.937Z,100404.38
2022-09-04T10:44:15.245Z,100404.13
2022-09-04T10:46:47.538Z,100401.44
2022-09-04T10:49:39.068Z,100400.38
2022-09-04T10:52:17.663Z,100398.72
2022-09-04T10:55:04.317Z,100398.72
2022-09-04T10:57:55.424Z,100401.22
2022-09-04T11:00:24.000Z,100401.22
2022-09-04T11:03:33.391Z,100394.97
2022-09-04T11:06:23.081Z,100385.19
2022-09-04T11:09:04.567Z,100384.97
2022-09-04T11:11:46.262Z,100384.13
2022-09-04T11:14:52.256Z,100389.34
2022-09-04T11:17:48.782Z,100380.38
2022-09-04T11:20:48.360Z,100376.63
2022-09-04T11:23:49.765Z,100374.97
2022-09-04T11:26:49.475Z,100384.53
2022-09-04T11:29:32.770Z,100384.53
2022-09-04T11:32:12.401Z,100379.94
2022-09-04T11:34:55.726Z,100376.63
2022-09-04T11:37:59.720Z,100382.44
2022-09-04T11:41:03.979Z,100383.25
2022-09-04T11:43:54.141Z,100385.72
2022-09-04T11:46:34.047Z,100387.38
2022-09-04T11:49:16.668Z,100388.22
2022-09-04T11:52:18.293Z,100377.38
2022-09-04T11:55:11.120Z,100379.03
2022-09-04T11:57:46.050Z,100380.69
2022-09-04T12:00:15.122Z,100375.28
2022-09-04T12:03:03.228Z,100368.19
2022-09-04T12:05:40.913Z,100371.50
2022-09-04T12:08:23.175Z,100364.19
2022-09-04T12:11:06.844Z,100359.84
2022-09-04T12:13:59.185Z,100358.56
2022-09-04T12:17:08.507Z,100363.97
2022-09-04T12:19:50.697Z,100361.50
2022-09-04T12:22:51.875Z,100356.06
2022-09-04T12:25:37.802Z,100357.75
2022-09-04T12:28:26.767Z,100355.25
2022-09-04T12:31:03.236Z,100362.34
2022-09-04T12:33:58.515Z,100362.34
2022-09-04T12:36:42.410Z,100365.06
2022-09-04T12:39:25.981Z,100371.03
2022-09-04T12:41:59.227Z,100371.88
2022-09-04T12:44:35.367Z,100369.75
2022-09-04T12:47:14.148Z,100379.78
2022-09-04T12:50:10.481Z,100377.66
2022-09-04T12:52:46.980Z,100366.84
2022-09-04T12:55:17.396Z,100364.13
2022-09-04T12:57:55.705Z,100366.84
2022-09-04T13:00:31.737Z,100373.91
2022-09-04T13:03:14.065Z,100362.03
2022-09-04T13:05:52.921Z,100358.47
2022-09-04T13:08:27.522Z,100350.34
2022-09-04T13:11:01.931Z,100346.81
2022-09-04T13:13:40.037Z,100347.63
2022-09-04T13:16:10.707Z,100343.06
2022-09-04T13:18:44.888Z,100346.59
2022-09-04T13:21:18.840Z,100342.22
2022-09-04T13:23:59.097Z,100350.34
2022-09-04T13:26:43.953Z,100348.50
2022-09-04T13:29:17.498Z,100346.81
2022-09-04T13:31:59.545Z,100348.50
2022-09-04T13:34:34.078Z,100352.25
2022-09-04T13:37:08.172Z,100351.19
2022-09-04T13:39:45.492Z,100349.06
2022-09-04T13:42:34.625Z,100346.34
2022-09-04T13:45:07.578Z,100356.16
2022-09-04T13:47:46.196Z,100349.66
2022-09-04T13:50:22.507Z,100342.63
2022-09-04T13:52:55.829Z,100342.63
2022-09-04T13:55:25.158Z,100336.13
2022-09-04T13:57:57.467Z,100343.22
2022-09-04T14:00:27.616Z,100348.63
2022-09-04T14:02:59.317Z,100333.44
2022-09-04T14:05:29.480Z,100330.72
2022-09-04T14:08:02.914Z,100330.50
2022-09-04T14:10:40.704Z,100341.34
2022-09-04T14:13:14.957Z,100345.94
2022-09-04T14:15:58.187Z,100343.44
2022-09-04T14:18:37.241Z,100344.25
2022-09-04T14:21:16.942Z,100341.56
2022-09-04T14:23:47.945Z,100343.44
2022-09-04T14:26:21.985Z,100341.56
2022-09-04T14:28:51.381Z,100346.16
2022-09-04T14:31:24.280Z,100339.91
2022-09-04T14:33:57.465Z,100352.38
2022-09-04T14:36:34.361Z,100352.38
2022-09-04T14:39:17.189Z,100354.88
2022-09-04T14:41:54.472Z,100351.34
2022-09-04T14:44:29.886Z,100346.50
2022-09-04T14:47:04.047Z,100341.09
2022-09-04T14:49:34.555Z,100347.34
2022-09-04T14:52:04.195Z,100346.50
2022-09-04T14:54:36.054Z,100345.47
2022-09-04T14:57:06.018Z,100355.22
2022-09-04T14:59:35.628Z,100351.09
2022-09-04T15:02:14.871Z,100353.34
2022-09-04T15:04:46.739Z,100349.00
2022-09-04T15:07:29.805Z,100357.13
2022-09-04T15:10:09.384Z,100358.75
2022-09-04T15:12:38.705Z,100351.69
2022-09-04T15:15:08.764Z,100352.53
2022-09-04T15:17:39.370Z,100359.00
2022-09-04T15:20:09.141Z,100359.81
2022-09-04T15:22:39.339Z,100367.13
2022-09-04T15:25:09.143Z,100367.13
2022-09-04T15:27:43.934Z,100357.13
2022-09-04T15:30:20.603Z,100365.47
2022-09-04T15:32:50.344Z,100360.03
2022-09-04T15:35:23.175Z,100363.34
2022-09-04T15:37:52.538Z,100364.19
2022-09-04T15:40:28.508Z,100368.78
2022-09-04T15:43:08.109Z,100368.78
2022-09-04T15:45:42.016Z,100378.31
2022-09-04T15:48:27.979Z,100371.25
2022-09-04T15:51:01.997Z,100376.69
2022-09-04T15:53:31.739Z,100374.78
2022-09-04T15:56:09.587Z,100376.69
2022-09-04T15:58:47.426Z,100375.81
2022-09-04T16:01:17.061Z,100362.28
2022-09-04T16:04:03.070Z,100373.97
2022-09-04T16:06:32.485Z,100376.69
2022-09-04T16:09:03.205Z,100374.44
2022-09-04T16:11:34.298Z,100361.72
2022-09-04T16:14:03.333Z,100361.72
2022-09-04T16:16:34.544Z,100366.31
2022-09-04T16:19:07.857Z,100371.72
2022-09-04T16:21:41.436Z,100371.72
2022-09-04T16:24:15.307Z,100377.34
2022-09-04T16:26:44.914Z,100381.72
2022-09-04T16:29:16.513Z,100371.72
2022-09-04T16:31:44.741Z,100387.13
2022-09-04T16:34:24.564Z,100389.63
2022-09-04T16:36:55.704Z,100381.72
2022-09-04T16:39:26.557Z,100387.13
2022-09-04T16:41:56.559Z,100390.44
2022-09-04T16:44:26.872Z,100396.91
2022-09-04T16:47:03.022Z,100392.53
2022-09-04T16:49:39.025Z,100406.94
2022-09-04T16:52:26.890Z,100401.72
2022-09-04T16:54:55.710Z,100408.78
2022-09-04T16:57:28.281Z,100396.31
2022-09-04T16:59:57.456Z,100410.91
2022-09-04T17:02:32.204Z,100405.50
2022-09-04T17:05:13.405Z,100410.06
2022-09-04T17:07:43.259Z,100415.47
2022-09-04T17:10:30.604Z,100417.38
2022-09-04T17:13:07.447Z,100422.78
2022-09-04T17:15:53.069Z,100425.50
2022-09-04T17:18:22.430Z,100431.97
2022-09-04T17:24:34.839Z,100433.88
2022-09-04T17:29:05.115Z,100433.00
2022-09-04T17:29:13.817Z,100433.00
2022-09-04T17:29:36.141Z,100450.31
2022-09-04T17:32:33.616Z,100450.09
2022-09-04T17:40:37.325Z,100461.97
2022-09-04T17:40:43.498Z,100455.53
2022-09-04T17:41:38.376Z,100460.09
2022-09-04T17:43:39.388Z,100458.44
2022-09-04T17:46:16.037Z,100467.19
2022-09-04T17:48:44.665Z,100468.22
2022-09-04T17:51:17.495Z,100462.22
2022-09-04T17:53:49.650Z,100474.69
2022-09-04T17:56:22.020Z,100480.94
2022-09-04T17:58:50.990Z,100482.81
2022-09-04T18:01:21.311Z,100482.81
2022-09-04T18:04:19.735Z,100490.94
2022-09-04T18:06:53.271Z,100491.16
2022-09-04T18:09:26.539Z,100494.72
2022-09-04T18:12:00.939Z,100499.28
2022-09-04T18:14:34.529Z,100499.28
2022-09-04T18:17:11.628Z,100505.53
2022-09-04T18:19:43.107Z,100509.28
2022-09-04T18:22:25.473Z,100509.28
2022-09-04T18:24:57.411Z,100509.53
2022-09-04T18:27:29.654Z,100524.72
2022-09-04T18:31:41.584Z,100525.53
2022-09-04T18:37:06.870Z,100528.47
2022-09-04T18:37:22.852Z,100532.00
2022-09-04T18:38:38.103Z,100534.72
2022-09-04T18:44:34.553Z,100534.72
2022-09-04T18:50:29.499Z,100548.25
2022-09-04T18:50:33.210Z,100539.31
2022-09-04T18:50:34.464Z,100552.63
2022-09-04T18:52:34.348Z,100556.38
2022-09-04T18:55:03.599Z,100558.28
2022-09-04T18:57:34.773Z,100556.38
2022-09-04T19:00:08.676Z,100558.47
2022-09-04T19:02:42.420Z,100559.31
2022-09-04T19:05:18.909Z,100560.38
2022-09-04T19:07:47.992Z,100559.53
2022-09-04T19:10:25.555Z,100576.59
2022-09-04T19:13:02.299Z,100564.97
2022-09-04T19:15:49.040Z,100576.81
2022-09-04T19:18:23.460Z,100567.06
2022-09-04T19:20:51.764Z,100570.81
2022-09-04T19:23:24.889Z,100565.41
2022-09-04T19:25:54.900Z,100568.13
2022-09-04T19:28:26.095Z,100566.44
2022-09-04T19:30:55.502Z,100561.03
2022-09-04T19:33:31.746Z,100562.91
2022-09-04T19:36:01.926Z,100568.31
2022-09-04T19:45:57.650Z,100580.78
2022-09-04T19:46:13.087Z,100571.84
2022-09-04T19:46:19.375Z,100573.75
2022-09-04T19:47:28.962Z,100583.50
2022-09-04T19:53:22.273Z,100585.19
2022-09-04T19:53:30.955Z,100577.28
2022-09-04T19:55:41.837Z,100578.94
2022-09-04T19:58:10.551Z,100587.06
2022-09-04T20:00:44.447Z,100582.69
2022-09-04T20:03:30.398Z,100582.69
2022-09-04T20:06:07.663Z,100582.69
2022-09-04T20:08:51.848Z,100584.78
2022-09-04T20:11:34.538Z,100588.34
2022-09-04T20:14:13.601Z,100588.53
2022-09-04T20:16:48.570Z,100581.47
2022-09-04T20:19:28.523Z,100587.72
2022-09-04T20:21:59.788Z,100588.53
2022-09-04T20:24:30.152Z,100592.31
2022-09-04T20:27:01.205Z,100595.22
2022-09-04T20:29:31.569Z,100590.63
2022-09-04T20:32:04.286Z,100589.81
2022-09-04T20:34:39.181Z,100594.41
2022-09-04T20:37:43.580Z,100594.41
2022-09-04T20:40:18.283Z,100602.53
2022-09-04T20:42:47.837Z,100600.03
2022-09-04T20:47:23.039Z,100593.78
2022-09-04T20:52:56.058Z,100601.91
2022-09-04T20:53:05.371Z,100603.56
2022-09-04T20:54:28.422Z,100605.44
2022-09-04T20:58:52.336Z,100611.69
2022-09-04T21:03:08.103Z,100601.91
2022-09-04T21:03:13.905Z,100608.97
2022-09-04T21:05:50.512Z,100614.38
2022-09-04T21:08:31.049Z,100611.09
2022-09-04T21:11:00.870Z,100609.22
2022-09-04T21:13:31.730Z,100608.38
2022-09-04T21:16:06.590Z,100613.19
2022-09-04T21:18:42.311Z,100612.38
2022-09-04T21:21:22.273Z,100618.59
2022-09-04T21:24:07.016Z,100615.91
2022-09-04T21:26:56.962Z,100620.69
2022-09-04T21:29:30.937Z,100620.69
2022-09-04T21:32:31.413Z,100619.88
2022-09-04T21:35:05.980Z,100624.47
2022-09-04T21:37:38.088Z,100619.06
2022-09-04T21:40:59.101Z,100622.78
2022-09-04T21:43:51.705Z,100626.56
2022-09-04T21:46:33.682Z,100620.31
2022-09-04T21:49:08.416Z,100620.31
2022-09-04T21:51:56.961Z,100617.81
2022-09-04T21:58:37.197Z,100624.06
2022-09-04T22:02:40.455Z,100621.59
2022-09-04T22:02:42.744Z,100615.34
2022-09-04T22:03:42.670Z,100621.59
2022-09-04T22:06:25.728Z,100619.91
2022-09-04T22:13:30.678Z,100614.50
2022-09-04T22:13:38.521Z,100621.59
2022-09-04T22:14:55.305Z,100613.66
2022-09-04T22:17:41.518Z,100620.97
2022-09-04T22:20:20.031Z,100623.66
2022-09-04T22:23:24.894Z,100625.31
2022-09-04T22:26:08.581Z,100624.72
2022-09-04T22:28:57.222Z,100619.31
2022-09-04T22:31:47.614Z,100617.44
2022-09-04T22:34:26.204Z,100624.72
2022-09-04T22:37:24.110Z,100626.38
2022-09-04T22:40:12.643Z,100624.72
2022-09-04T22:42:45.286Z,100619.31
2022-09-04T22:45:37.108Z,100617.44
2022-09-04T22:48:29.342Z,100622.03
2022-09-04T22:51:10.587Z,100625.56
2022-09-04T22:53:57.758Z,100622.84
2022-09-04T22:56:34.408Z,100624.72
2022-09-04T22:59:26.976Z,100622.84
2022-09-04T23:03:04.201Z,100627.44
2022-09-04T23:06:16.186Z,100626.59
2022-09-04T23:13:43.836Z,100620.34
2022-09-04T23:13:59.148Z,100632.00
2022-09-04T23:14:48.871Z,100625.75
2022-09-04T23:17:58.246Z,100631.19
2022-09-04T23:26:49.408Z,100626.00
2022-09-04T23:26:52.626Z,100624.13
2022-09-04T23:27:00.943Z,100627.84
2022-09-04T23:30:03.948Z,100631.63
2022-09-04T23:32:53.927Z,100625.38
2022-09-04T23:35:27.704Z,100635.38
2022-09-04T23:38:11.036Z,100631.00
2022-09-04T23:40:44.505Z,100636.41
2022-09-04T23:43:33.091Z,100622.88
2022-09-04T23:46:32.359Z,100621.25
2022-09-04T23:49:41.579Z,100628.28
2022-09-04T23:52:15.363Z,100621.44
2022-09-04T23:54:57.914Z,100625.00
2022-09-04T23:57:28.809Z,100627.47
